Frisco, Texas
Current Conditions -  °F | °C
As of 7:51 PM on Friday 24 Oct 2014 (Local Time) from KADS Reporting Station
Clear Clear  
Wind Chill: 77°   Ceiling: Unl
Heat Index: 79°   Visibility: 13mi
Dew Point: 59°   Wind: 8mph
Humidity: 54%   Direction: 130°SE
Pressure: 30.08"   Gusts: NA
Location:  33.15°N, 96.82°W
Report Text: KADS 250051Z 13007KT 13SM SKC 25/15 A3008
Loading
Personal Weather Stations






























Interactive Weather Map
Tropical Storm Tracking
New forecast layout! Learn more

10-Day Weather Forecast

Advertisements
Track Severe Weather on mobile